createdAt,value
2022-12-03T00:00:17.289Z,5.10
2022-12-03T00:03:04.988Z,6.93
2022-12-03T00:05:33.186Z,11.07
2022-12-03T00:08:00.730Z,10.48
2022-12-03T00:10:28.684Z,5.10
2022-12-03T00:12:56.247Z,8.27
2022-12-03T00:15:24.145Z,3.50
2022-12-03T00:17:51.721Z,5.95
2022-12-03T00:20:23.477Z,5.10
2022-12-03T00:22:51.482Z,8.45
2022-12-03T00:25:19.303Z,5.03
2022-12-03T00:27:46.907Z,5.22
2022-12-03T00:30:15.193Z,5.35
2022-12-03T00:32:43.054Z,7.40
2022-12-03T00:35:11.151Z,7.75
2022-12-03T00:37:38.732Z,6.03
2022-12-03T00:40:07.869Z,5.30
2022-12-03T00:42:35.424Z,6.47
2022-12-03T00:45:05.402Z,4.10
2022-12-03T00:47:32.958Z,5.93
2022-12-03T00:50:00.835Z,5.10
2022-12-03T00:52:28.334Z,7.22
2022-12-03T00:54:56.346Z,4.50
2022-12-03T00:57:23.940Z,5.70
2022-12-03T00:59:51.966Z,3.60
2022-12-03T01:02:19.624Z,6.97
2022-12-03T01:04:48.091Z,3.65
2022-12-03T01:07:15.729Z,4.30
2022-12-03T01:09:43.669Z,4.63
2022-12-03T01:12:12.062Z,5.70
2022-12-03T01:14:40.422Z,4.72
2022-12-03T01:17:07.945Z,4.35
2022-12-03T01:19:36.501Z,4.10
2022-12-03T01:22:04.565Z,4.82
2022-12-03T01:24:32.479Z,3.65
2022-12-03T01:27:00.991Z,6.25
2022-12-03T01:29:28.943Z,7.80
2022-12-03T01:32:14.877Z,5.47
2022-12-03T01:34:44.608Z,6.50
2022-12-03T01:37:12.490Z,6.85
2022-12-03T01:39:41.121Z,6.38
2022-12-03T01:42:21.035Z,8.70
2022-12-03T01:44:57.472Z,4.43
2022-12-03T01:47:31.403Z,6.07
2022-12-03T01:50:27.341Z,9.57
2022-12-03T01:52:59.491Z,5.85
2022-12-03T01:55:28.936Z,6.43
2022-12-03T01:58:01.021Z,5.20
2022-12-03T02:00:30.056Z,4.03
2022-12-03T02:03:02.240Z,7.55
2022-12-03T02:05:33.987Z,4.53
2022-12-03T02:08:01.782Z,4.95
2022-12-03T02:10:36.214Z,6.72
2022-12-03T02:13:08.524Z,5.38
2022-12-03T02:15:39.319Z,5.95
2022-12-03T02:18:09.241Z,4.75
2022-12-03T02:21:01.930Z,6.78
2022-12-03T02:23:59.174Z,5.05
2022-12-03T02:26:27.306Z,5.18
2022-12-03T02:28:55.123Z,4.63
2022-12-03T02:31:23.879Z,3.72
2022-12-03T02:33:51.634Z,6.60
2022-12-03T02:36:19.967Z,6.82
2022-12-03T02:38:49.678Z,4.55
2022-12-03T02:41:51.313Z,5.57
2022-12-03T02:44:19.049Z,4.75
2022-12-03T02:46:46.916Z,4.93
2022-12-03T02:49:14.615Z,4.43
2022-12-03T02:51:42.511Z,5.05
2022-12-03T02:54:11.727Z,6.20
2022-12-03T02:56:40.761Z,3.85
2022-12-03T02:59:08.399Z,4.82
2022-12-03T03:01:36.309Z,6.43
2022-12-03T03:04:05.711Z,4.97
2022-12-03T03:06:34.552Z,3.83
2022-12-03T03:09:04.227Z,4.13
2022-12-03T03:11:32.533Z,3.65
2022-12-03T03:14:03.300Z,4.65
2022-12-03T03:16:33.266Z,6.57
2022-12-03T03:19:02.310Z,3.25
2022-12-03T03:21:30.825Z,8.85
2022-12-03T03:23:58.478Z,3.08
2022-12-03T03:26:26.758Z,4.45
2022-12-03T03:28:54.450Z,2.83
2022-12-03T03:31:24.535Z,2.30
2022-12-03T03:33:52.460Z,5.85
2022-12-03T03:36:20.841Z,3.75
2022-12-03T03:38:49.079Z,2.53
2022-12-03T03:41:17.714Z,3.30
2022-12-03T03:43:46.132Z,3.10
2022-12-03T03:46:15.041Z,2.20
2022-12-03T03:48:43.811Z,4.38
2022-12-03T03:51:13.159Z,4.78
2022-12-03T03:53:47.898Z,2.28
2022-12-03T03:56:18.107Z,2.80
2022-12-03T03:58:45.989Z,1.75
2022-12-03T04:01:15.374Z,3.88
2022-12-03T04:03:43.072Z,2.63
2022-12-03T04:06:11.432Z,3.25
2022-12-03T04:08:38.933Z,2.88
2022-12-03T04:11:25.892Z,3.38
2022-12-03T04:13:53.419Z,5.38
2022-12-03T04:16:21.367Z,2.42
2022-12-03T04:18:48.978Z,4.63
2022-12-03T04:21:39.120Z,3.28
2022-12-03T04:24:09.236Z,3.97
2022-12-03T04:26:55.765Z,2.35
2022-12-03T04:29:23.671Z,3.25
2022-12-03T04:32:10.063Z,4.22
2022-12-03T04:34:56.644Z,2.63
2022-12-03T04:37:24.912Z,2.72
2022-12-03T04:39:52.551Z,3.70
2022-12-03T04:42:20.503Z,2.20
2022-12-03T04:44:48.031Z,2.33
2022-12-03T04:47:22.005Z,3.60
2022-12-03T04:49:51.878Z,2.80
2022-12-03T04:52:21.016Z,2.83
2022-12-03T04:54:48.919Z,5.65
2022-12-03T04:57:16.956Z,6.18
2022-12-03T04:59:44.578Z,2.85
2022-12-03T05:02:12.522Z,4.15
2022-12-03T05:04:40.356Z,3.78
2022-12-03T05:07:08.267Z,3.80
2022-12-03T05:09:35.851Z,3.85
2022-12-03T05:12:04.062Z,7.68
2022-12-03T05:14:31.773Z,9.65
2022-12-03T05:16:59.829Z,7.63
2022-12-03T05:19:47.460Z,5.40
2022-12-03T05:22:15.414Z,5.38
2022-12-03T05:24:43.001Z,4.90
2022-12-03T05:27:10.902Z,5.55
2022-12-03T05:29:38.365Z,2.78
2022-12-03T05:32:06.475Z,2.17
2022-12-03T05:34:34.036Z,2.60
2022-12-03T05:37:01.844Z,4.80
2022-12-03T05:39:29.370Z,3.88
2022-12-03T05:42:16.160Z,2.17
2022-12-03T05:44:43.753Z,2.65
2022-12-03T05:47:11.620Z,2.42
2022-12-03T05:49:39.111Z,2.70
2022-12-03T05:52:07.080Z,3.35
2022-12-03T05:54:34.631Z,4.10
2022-12-03T05:57:02.443Z,23.15
2022-12-03T05:59:29.953Z,3.92
2022-12-03T06:01:57.802Z,2.92
2022-12-03T06:04:25.398Z,4.15
2022-12-03T06:06:53.405Z,3.80
2022-12-03T06:09:20.947Z,8.25
2022-12-03T06:11:53.540Z,6.28
2022-12-03T06:14:21.755Z,6.28
2022-12-03T06:16:49.709Z,5.03
2022-12-03T06:19:17.956Z,4.05
2022-12-03T06:21:45.726Z,4.57
2022-12-03T06:24:13.350Z,3.55
2022-12-03T06:26:41.218Z,5.82
2022-12-03T06:29:08.839Z,2.97
2022-12-03T06:31:37.057Z,5.13
2022-12-03T06:34:04.671Z,4.25
2022-12-03T06:36:32.523Z,4.00
2022-12-03T06:39:00.044Z,4.22
2022-12-03T06:41:27.993Z,3.97
2022-12-03T06:43:55.536Z,8.70
2022-12-03T06:46:23.449Z,4.28
2022-12-03T06:48:50.988Z,5.05
2022-12-03T06:51:18.865Z,3.20
2022-12-03T06:53:46.442Z,5.10
2022-12-03T06:56:14.333Z,4.10
2022-12-03T06:58:41.806Z,4.20
2022-12-03T07:01:09.789Z,9.20
2022-12-03T07:03:37.346Z,3.95
2022-12-03T07:06:05.471Z,8.85
2022-12-03T07:08:32.999Z,3.55
2022-12-03T07:11:00.962Z,5.00
2022-12-03T07:13:29.257Z,3.38
2022-12-03T07:15:57.172Z,4.50
2022-12-03T07:18:24.830Z,3.53
2022-12-03T07:20:52.720Z,3.72
2022-12-03T07:23:20.808Z,5.80
2022-12-03T07:25:48.626Z,10.98
2022-12-03T07:28:16.165Z,13.05
2022-12-03T07:30:43.934Z,12.35
2022-12-03T07:33:11.440Z,13.75
2022-12-03T07:35:39.357Z,11.52
2022-12-03T07:38:06.821Z,11.57
2022-12-03T07:40:34.658Z,6.72
2022-12-03T07:43:02.220Z,8.27
2022-12-03T07:45:30.163Z,8.38
2022-12-03T07:47:57.922Z,6.32
2022-12-03T07:50:28.298Z,7.55
2022-12-03T07:52:56.577Z,5.70
2022-12-03T07:55:25.396Z,7.10
2022-12-03T07:57:53.063Z,8.00
2022-12-03T08:00:21.717Z,5.53
2022-12-03T08:02:49.582Z,7.03
2022-12-03T08:05:17.828Z,7.05
2022-12-03T08:07:45.500Z,8.93
2022-12-03T08:10:14.049Z,6.03
2022-12-03T08:12:41.563Z,10.35
2022-12-03T08:15:21.935Z,7.55
2022-12-03T08:18:05.448Z,7.57
2022-12-03T08:20:38.920Z,7.50
2022-12-03T08:23:18.000Z,8.57
2022-12-03T08:25:46.849Z,6.72
2022-12-03T08:28:23.051Z,8.20
2022-12-03T08:31:00.967Z,7.40
2022-12-03T08:33:37.297Z,7.30
2022-12-03T08:36:31.137Z,6.40
2022-12-03T08:39:33.630Z,7.35
2022-12-03T08:42:37.167Z,5.63
2022-12-03T08:45:39.928Z,7.10
2022-12-03T08:48:40.696Z,7.40
2022-12-03T08:51:25.514Z,5.30
2022-12-03T08:54:02.166Z,11.35
2022-12-03T08:56:33.733Z,6.57
2022-12-03T08:59:30.762Z,9.93
2022-12-03T09:01:59.929Z,7.18
2022-12-03T09:07:14.271Z,9.23
2022-12-03T09:09:42.139Z,6.85
2022-12-03T09:12:09.789Z,6.97
2022-12-03T09:14:37.674Z,5.50
2022-12-03T09:17:06.065Z,6.05
2022-12-03T09:19:33.988Z,9.00
2022-12-03T09:22:01.566Z,6.47
2022-12-03T09:24:29.400Z,8.48
2022-12-03T09:26:56.918Z,7.65
2022-12-03T09:29:24.817Z,7.65
2022-12-03T09:31:53.495Z,7.53
2022-12-03T09:34:21.477Z,7.32
2022-12-03T09:36:49.041Z,4.80
2022-12-03T09:39:16.932Z,6.97
2022-12-03T09:41:44.923Z,7.35
2022-12-03T09:44:17.427Z,5.88
2022-12-03T09:46:46.756Z,6.03
2022-12-03T09:49:18.361Z,6.70
2022-12-03T09:51:46.728Z,7.47
2022-12-03T09:54:24.510Z,8.70
2022-12-03T09:56:55.629Z,8.52
2022-12-03T09:59:27.609Z,8.80
2022-12-03T10:01:55.711Z,8.32
2022-12-03T10:04:24.407Z,9.18
2022-12-03T10:06:52.370Z,8.00
2022-12-03T10:09:28.324Z,5.75
2022-12-03T10:12:00.102Z,7.43
2022-12-03T10:14:29.094Z,10.02
2022-12-03T10:16:58.441Z,11.38
2022-12-03T10:21:57.424Z,7.85
2022-12-03T10:24:33.452Z,13.30
2022-12-03T10:27:30.715Z,9.55
2022-12-03T10:30:02.021Z,11.73
2022-12-03T10:32:46.639Z,12.43
2022-12-03T10:35:36.926Z,8.80
2022-12-03T10:38:22.385Z,8.77
2022-12-03T10:40:50.966Z,13.32
2022-12-03T10:43:18.476Z,8.10
2022-12-03T10:45:48.609Z,7.18
2022-12-03T10:48:25.599Z,8.73
2022-12-03T10:51:08.046Z,11.25
2022-12-03T10:53:39.131Z,9.18
2022-12-03T10:56:13.852Z,9.30
2022-12-03T10:58:42.385Z,7.20
2022-12-03T11:01:36.922Z,9.43
2022-12-03T11:04:05.977Z,8.30
2022-12-03T11:06:34.214Z,8.35
2022-12-03T11:09:08.800Z,8.25
2022-12-03T11:11:37.190Z,10.23
2022-12-03T11:14:05.417Z,7.85
2022-12-03T11:16:42.763Z,18.17
2022-12-03T11:19:13.387Z,7.47
2022-12-03T11:22:06.390Z,10.63
2022-12-03T11:24:37.667Z,12.25
2022-12-03T11:27:07.182Z,7.97
2022-12-03T11:30:01.367Z,9.80
2022-12-03T11:32:38.803Z,10.18
2022-12-03T11:35:24.428Z,7.30
2022-12-03T11:37:52.929Z,11.50
2022-12-03T11:40:20.385Z,16.88
2022-12-03T11:42:49.852Z,16.15
2022-12-03T11:45:35.778Z,14.45
2022-12-03T11:48:15.377Z,31.83
2022-12-03T11:50:52.479Z,31.25
2022-12-03T11:53:27.329Z,30.60
2022-12-03T11:56:09.213Z,25.10
2022-12-03T11:58:42.737Z,28.35
2022-12-03T12:01:10.764Z,14.27
2022-12-03T12:03:47.052Z,37.03
2022-12-03T12:06:21.738Z,43.75
2022-12-03T12:08:52.016Z,39.38
2022-12-03T12:11:31.259Z,51.42
2022-12-03T12:14:07.651Z,56.72
2022-12-03T12:16:50.630Z,40.22
2022-12-03T12:19:43.984Z,53.50
2022-12-03T12:22:17.080Z,46.25
2022-12-03T12:24:51.535Z,62.80
2022-12-03T12:27:21.594Z,51.63
2022-12-03T12:30:09.038Z,34.97
2022-12-03T12:33:00.516Z,44.75
2022-12-03T12:35:32.620Z,34.67
2022-12-03T12:38:12.722Z,50.17
2022-12-03T12:40:45.655Z,38.20
2022-12-03T12:43:25.191Z,31.33
2022-12-03T12:46:46.250Z,36.20
2022-12-03T12:49:01.770Z,38.58
2022-12-03T12:51:29.637Z,37.15
2022-12-03T12:53:57.945Z,38.47
2022-12-03T12:56:31.098Z,39.33
2022-12-03T12:59:12.484Z,50.65
2022-12-03T13:01:42.216Z,42.63
2022-12-03T13:06:44.025Z,30.92
2022-12-03T13:09:38.696Z,19.67
2022-12-03T13:12:19.401Z,24.77
2022-12-03T13:14:47.445Z,19.23
2022-12-03T13:17:26.138Z,34.45
2022-12-03T13:20:05.158Z,35.92
2022-12-03T13:22:35.512Z,27.50
2022-12-03T13:26:00.308Z,29.65
2022-12-03T13:28:24.489Z,30.05
2022-12-03T13:30:52.310Z,22.40
2022-12-03T13:33:26.321Z,24.88
2022-12-03T13:35:56.487Z,37.10
2022-12-03T13:38:25.902Z,22.60
2022-12-03T13:41:03.833Z,20.98
2022-12-03T13:43:33.389Z,19.05
2022-12-03T13:46:01.383Z,15.75
2022-12-03T13:48:36.106Z,20.23
2022-12-03T13:51:43.613Z,12.10
2022-12-03T13:54:20.640Z,17.77
2022-12-03T13:56:49.395Z,8.35
2022-12-03T13:59:22.971Z,13.65
2022-12-03T14:01:53.703Z,15.63
2022-12-03T14:04:21.736Z,13.90
2022-12-03T14:06:49.341Z,17.40
2022-12-03T14:09:17.268Z,17.45
2022-12-03T14:12:03.466Z,14.07
2022-12-03T14:14:31.519Z,14.00
2022-12-03T14:17:00.175Z,11.75
2022-12-03T14:19:28.479Z,9.73
2022-12-03T14:21:56.440Z,10.35
2022-12-03T14:24:24.597Z,14.93
2022-12-03T14:26:52.275Z,15.27
2022-12-03T14:29:20.312Z,10.88
2022-12-03T14:31:47.831Z,16.38
2022-12-03T14:34:16.058Z,14.15
2022-12-03T14:36:44.323Z,14.88
2022-12-03T14:39:12.440Z,8.47
2022-12-03T14:41:58.943Z,8.55
2022-12-03T14:44:27.242Z,9.57
2022-12-03T14:46:57.402Z,7.88
2022-12-03T14:49:25.731Z,6.80
2022-12-03T14:51:54.079Z,7.93
2022-12-03T14:54:22.156Z,11.43
2022-12-03T14:56:49.890Z,12.75
2022-12-03T14:59:20.724Z,13.02
2022-12-03T15:01:52.465Z,14.52
2022-12-03T15:04:20.466Z,11.70
2022-12-03T15:06:48.098Z,15.90
2022-12-03T15:09:16.037Z,14.75
2022-12-03T15:11:46.327Z,10.05
2022-12-03T15:14:14.911Z,9.52
2022-12-03T15:16:42.574Z,10.57
2022-12-03T15:19:10.443Z,14.35
2022-12-03T15:21:38.040Z,14.68
2022-12-03T15:24:06.375Z,11.93
2022-12-03T15:26:33.932Z,13.52
2022-12-03T15:29:02.007Z,17.20
2022-12-03T15:31:29.767Z,13.40
2022-12-03T15:33:57.631Z,14.52
2022-12-03T15:36:25.301Z,14.57
2022-12-03T15:38:53.278Z,11.15
2022-12-03T15:41:21.493Z,16.67
2022-12-03T15:43:51.047Z,16.73
2022-12-03T15:46:20.699Z,19.45
2022-12-03T15:48:49.546Z,13.18
2022-12-03T15:51:17.375Z,14.32
2022-12-03T15:53:45.547Z,17.02
2022-12-03T15:56:14.115Z,15.38
2022-12-03T15:58:42.264Z,16.02
2022-12-03T16:01:10.364Z,18.75
2022-12-03T16:03:38.288Z,18.55
2022-12-03T16:06:06.384Z,23.90
2022-12-03T16:08:34.385Z,19.65
2022-12-03T16:11:01.995Z,17.92
2022-12-03T16:13:29.951Z,16.05
2022-12-03T16:15:57.485Z,16.85
2022-12-03T16:18:25.434Z,17.33
2022-12-03T16:20:53.074Z,18.95
2022-12-03T16:23:21.017Z,15.30
2022-12-03T16:25:48.584Z,16.75
2022-12-03T16:28:16.716Z,17.98
2022-12-03T16:30:44.475Z,17.90
2022-12-03T16:33:12.392Z,16.13
2022-12-03T16:35:40.074Z,15.40
2022-12-03T16:38:07.969Z,13.40
2022-12-03T16:40:35.503Z,19.10
2022-12-03T16:43:04.902Z,23.23
2022-12-03T16:45:35.436Z,19.70
2022-12-03T16:48:03.531Z,18.85
2022-12-03T16:50:31.148Z,19.52
2022-12-03T16:52:59.091Z,18.65
2022-12-03T16:55:26.709Z,14.88
2022-12-03T16:57:54.552Z,15.05
2022-12-03T17:00:22.308Z,14.20
2022-12-03T17:02:50.249Z,16.63
2022-12-03T17:05:18.003Z,12.13
2022-12-03T17:07:45.839Z,14.05
2022-12-03T17:10:13.573Z,16.27
2022-12-03T17:13:08.893Z,17.60
2022-12-03T17:15:29.194Z,15.38
2022-12-03T17:17:57.350Z,18.63
2022-12-03T17:20:25.260Z,15.85
2022-12-03T17:22:53.243Z,15.10
2022-12-03T17:25:21.047Z,18.38
2022-12-03T17:27:49.024Z,14.32
2022-12-03T17:30:17.000Z,16.02
2022-12-03T17:32:44.998Z,17.70
2022-12-03T17:35:12.883Z,13.70
2022-12-03T17:37:40.931Z,14.90
2022-12-03T17:40:12.246Z,20.48
2022-12-03T17:42:40.305Z,16.00
2022-12-03T17:45:09.042Z,18.20
2022-12-03T17:47:36.963Z,12.07
2022-12-03T17:50:05.330Z,20.25
2022-12-03T17:52:33.336Z,14.27
2022-12-03T17:55:26.452Z,15.93
2022-12-03T17:57:49.109Z,14.68
2022-12-03T18:00:17.132Z,19.27
2022-12-03T18:02:45.182Z,15.30
2022-12-03T18:05:14.259Z,14.73
2022-12-03T18:07:42.303Z,16.73
2022-12-03T18:10:10.174Z,13.02
2022-12-03T18:12:38.209Z,14.77
2022-12-03T18:15:06.724Z,15.88
2022-12-03T18:17:34.620Z,16.95
2022-12-03T18:20:02.503Z,15.95
2022-12-03T18:22:31.468Z,17.33
2022-12-03T18:24:59.311Z,15.87
2022-12-03T18:27:27.252Z,19.92
2022-12-03T18:29:54.905Z,12.98
2022-12-03T18:32:30.324Z,15.43
2022-12-03T18:34:58.557Z,14.00
2022-12-03T18:37:29.395Z,14.00
2022-12-03T18:39:58.503Z,17.05
2022-12-03T18:44:56.305Z,12.55
2022-12-03T18:47:28.997Z,13.93
2022-12-03T18:49:57.448Z,12.25
2022-12-03T18:52:25.753Z,12.20
2022-12-03T18:54:54.476Z,18.60
2022-12-03T18:57:22.412Z,16.42
2022-12-03T18:59:49.939Z,16.45
2022-12-03T19:05:09.713Z,15.35
2022-12-03T19:07:37.822Z,15.60
2022-12-03T19:10:06.314Z,12.73
2022-12-03T19:12:34.296Z,13.57
2022-12-03T19:15:02.923Z,15.85
2022-12-03T19:17:31.074Z,15.50
2022-12-03T19:19:59.760Z,11.77
2022-12-03T19:22:27.586Z,17.70
2022-12-03T19:24:55.149Z,16.02
2022-12-03T19:27:23.174Z,13.45
2022-12-03T19:29:51.042Z,15.25
2022-12-03T19:32:18.957Z,11.88
2022-12-03T19:34:46.613Z,11.77
2022-12-03T19:37:14.699Z,14.00
2022-12-03T19:39:43.201Z,15.40
2022-12-03T19:42:11.164Z,11.52
2022-12-03T19:44:39.360Z,12.82
2022-12-03T19:47:07.245Z,17.48
2022-12-03T19:49:34.911Z,15.75
2022-12-03T19:52:02.925Z,13.13
2022-12-03T19:54:30.454Z,13.20
2022-12-03T19:56:58.359Z,12.60
2022-12-03T19:59:26.014Z,16.50
2022-12-03T20:01:54.038Z,15.07
2022-12-03T20:04:21.718Z,18.75
2022-12-03T20:06:49.701Z,14.85
2022-12-03T20:09:18.030Z,12.45
2022-12-03T20:11:46.528Z,13.55
2022-12-03T20:14:17.018Z,15.27
2022-12-03T20:16:47.425Z,14.60
2022-12-03T20:19:18.106Z,11.18
2022-12-03T20:21:46.176Z,12.70
2022-12-03T20:24:17.621Z,9.52
2022-12-03T20:26:45.779Z,12.60
2022-12-03T20:29:13.848Z,11.15
2022-12-03T20:31:41.946Z,12.95
2022-12-03T20:34:11.410Z,9.95
2022-12-03T20:36:40.014Z,9.48
2022-12-03T20:39:08.500Z,10.43
2022-12-03T20:41:37.885Z,6.88
2022-12-03T20:44:07.665Z,6.22
2022-12-03T20:46:36.426Z,8.80
2022-12-03T20:49:04.660Z,9.23
2022-12-03T20:51:32.945Z,6.63
2022-12-03T20:54:01.747Z,10.80
2022-12-03T20:56:36.777Z,6.70
2022-12-03T20:59:07.869Z,8.98
2022-12-03T21:01:36.704Z,8.90
2022-12-03T21:04:05.934Z,10.38
2022-12-03T21:09:07.943Z,7.78
2022-12-03T21:11:39.141Z,7.55
2022-12-03T21:14:06.789Z,9.02
2022-12-03T21:19:25.995Z,7.97
2022-12-03T21:21:53.907Z,6.88
2022-12-03T21:24:21.483Z,9.38
2022-12-03T21:26:50.322Z,5.72
2022-12-03T21:29:18.270Z,8.67
2022-12-03T21:31:46.758Z,7.18
2022-12-03T21:34:14.759Z,7.20
2022-12-03T21:36:42.979Z,4.20
2022-12-03T21:39:10.594Z,5.28
2022-12-03T21:41:38.630Z,3.67
2022-12-03T21:44:06.235Z,4.20
2022-12-03T21:47:10.097Z,4.07
2022-12-03T21:49:22.789Z,6.28
2022-12-03T21:51:50.761Z,7.03
2022-12-03T21:54:18.537Z,4.03
2022-12-03T21:56:46.552Z,3.90
2022-12-03T21:59:14.598Z,3.25
2022-12-03T22:01:46.938Z,5.18
2022-12-03T22:04:15.630Z,3.40
2022-12-03T22:06:43.775Z,3.83
2022-12-03T22:09:14.756Z,3.05
2022-12-03T22:11:45.887Z,3.28
2022-12-03T22:14:13.565Z,3.30
2022-12-03T22:16:41.364Z,3.42
2022-12-03T22:19:08.914Z,4.30
2022-12-03T22:21:36.864Z,3.40
2022-12-03T22:24:04.870Z,3.45
2022-12-03T22:26:35.151Z,2.60
2022-12-03T22:29:03.558Z,2.83
2022-12-03T22:31:32.767Z,4.93
2022-12-03T22:34:00.282Z,2.40
2022-12-03T22:36:28.069Z,3.70
2022-12-03T22:38:55.857Z,3.85
2022-12-03T22:41:24.018Z,3.20
2022-12-03T22:43:51.603Z,4.45
2022-12-03T22:46:19.578Z,2.47
2022-12-03T22:48:47.508Z,3.47
2022-12-03T22:51:23.261Z,1.90
2022-12-03T22:54:00.136Z,2.50
2022-12-03T22:56:30.440Z,2.28
2022-12-03T22:58:58.476Z,2.50
2022-12-03T23:01:33.354Z,2.83
2022-12-03T23:04:02.143Z,4.10
2022-12-03T23:06:31.241Z,3.33
2022-12-03T23:08:59.566Z,4.20
2022-12-03T23:11:28.435Z,3.42
2022-12-03T23:13:57.201Z,3.33
2022-12-03T23:16:31.459Z,2.65
2022-12-03T23:19:01.391Z,4.97
2022-12-03T23:21:33.042Z,4.00
2022-12-03T23:24:03.495Z,6.30
2022-12-03T23:26:36.766Z,2.90
2022-12-03T23:29:06.175Z,3.08
2022-12-03T23:31:34.550Z,2.38
2022-12-03T23:34:03.212Z,2.88
2022-12-03T23:36:33.670Z,3.72
2022-12-03T23:39:01.337Z,4.18
2022-12-03T23:41:29.243Z,3.35
2022-12-03T23:43:57.514Z,2.13
2022-12-03T23:46:27.568Z,3.53
2022-12-03T23:48:58.534Z,3.00
2022-12-03T23:51:26.893Z,2.83
2022-12-03T23:53:56.191Z,9.52
2022-12-03T23:56:29.238Z,2.30
2022-12-03T23:58:58.145Z,1.65
